createdAt,value
2022-08-12T00:00:32.654Z,21.68
2022-08-12T00:03:03.202Z,21.60
2022-08-12T00:05:35.199Z,21.52
2022-08-12T00:08:05.557Z,21.65
2022-08-12T00:10:36.278Z,21.55
2022-08-12T00:13:07.370Z,21.80
2022-08-12T00:15:42.771Z,21.75
2022-08-12T00:18:13.099Z,21.93
2022-08-12T00:20:44.004Z,21.93
2022-08-12T00:23:14.439Z,21.95
2022-08-12T00:25:51.203Z,21.80
2022-08-12T00:28:19.865Z,21.78
2022-08-12T00:30:50.337Z,21.94
2022-08-12T00:33:23.018Z,21.94
2022-08-12T00:35:56.719Z,21.89
2022-08-12T00:38:28.143Z,21.89
2022-08-12T00:41:00.266Z,21.89
2022-08-12T00:43:30.750Z,21.82
2022-08-12T00:46:01.184Z,22.09
2022-08-12T00:48:32.739Z,22.04
2022-08-12T00:51:06.518Z,22.05
2022-08-12T00:53:37.943Z,21.97
2022-08-12T00:56:09.126Z,22.00
2022-08-12T00:58:41.655Z,22.00
2022-08-12T01:01:14.621Z,22.01
2022-08-12T01:03:47.997Z,21.98
2022-08-12T01:06:20.141Z,22.02
2022-08-12T01:08:50.409Z,22.28
2022-08-12T01:11:21.183Z,22.24
2022-08-12T01:13:52.607Z,22.24
2022-08-12T01:16:23.029Z,22.16
2022-08-12T01:18:55.873Z,22.10
2022-08-12T01:21:29.150Z,22.10
2022-08-12T01:24:28.208Z,22.09
2022-08-12T01:26:57.088Z,22.11
2022-08-12T01:29:33.558Z,22.22
2022-08-12T01:32:27.548Z,22.25
2022-08-12T01:35:34.065Z,22.25
2022-08-12T01:38:07.400Z,22.34
2022-08-12T01:40:42.507Z,22.12
2022-08-12T01:43:14.230Z,22.07
2022-08-12T01:46:05.092Z,22.13
2022-08-12T01:48:57.896Z,22.11
2022-08-12T01:52:21.871Z,22.16
2022-08-12T01:54:31.970Z,22.16
2022-08-12T01:57:58.108Z,22.18
2022-08-12T02:00:06.918Z,22.18
2022-08-12T02:02:43.102Z,22.14
2022-08-12T02:05:22.223Z,22.25
2022-08-12T02:07:57.948Z,22.13
2022-08-12T02:13:49.229Z,22.34
2022-08-12T02:16:43.453Z,22.34
2022-08-12T02:19:49.581Z,22.32
2022-08-12T02:22:52.073Z,22.27
2022-08-12T02:25:27.900Z,22.27
2022-08-12T02:27:58.353Z,22.32
2022-08-12T02:30:35.364Z,22.23
2022-08-12T02:33:05.926Z,22.29
2022-08-12T02:35:38.531Z,22.34
2022-08-12T02:38:29.501Z,22.44
2022-08-12T02:43:58.689Z,22.42
2022-08-12T02:46:34.132Z,22.48
2022-08-12T02:49:07.593Z,22.67
2022-08-12T02:51:43.800Z,22.67
2022-08-12T02:54:14.079Z,22.54
2022-08-12T02:56:50.441Z,22.68
2022-08-12T02:59:19.210Z,22.66
2022-08-12T03:01:54.710Z,22.65
2022-08-12T03:04:27.898Z,22.68
2022-08-12T03:07:21.648Z,22.68
2022-08-12T03:10:15.858Z,22.68
2022-08-12T03:12:50.932Z,22.68
2022-08-12T03:15:23.122Z,22.56
2022-08-12T03:18:24.787Z,22.61
2022-08-12T03:20:37.386Z,22.68
2022-08-12T03:23:10.376Z,22.71
2022-08-12T03:25:43.768Z,22.57
2022-08-12T03:28:23.638Z,22.61
2022-08-12T03:30:48.349Z,22.61
2022-08-12T03:33:20.965Z,22.74
2022-08-12T03:35:55.706Z,22.74
2022-08-12T03:38:29.014Z,22.87
2022-08-12T03:41:02.217Z,22.85
2022-08-12T03:43:36.142Z,22.64
2022-08-12T03:46:11.821Z,22.64
2022-08-12T03:48:42.420Z,22.66
2022-08-12T03:51:13.175Z,22.52
2022-08-12T03:53:47.454Z,22.65
2022-08-12T03:56:20.287Z,22.65
2022-08-12T03:58:52.089Z,22.65
2022-08-12T04:01:22.650Z,22.67
2022-08-12T04:03:54.166Z,22.75
2022-08-12T04:06:35.006Z,22.60
2022-08-12T04:08:59.852Z,22.62
2022-08-12T04:11:32.281Z,22.68
2022-08-12T04:16:52.580Z,22.72
2022-08-12T04:19:22.904Z,22.42
2022-08-12T04:22:01.262Z,22.42
2022-08-12T04:24:31.505Z,22.44
2022-08-12T04:27:02.190Z,22.35
2022-08-12T04:30:21.368Z,22.12
2022-08-12T04:32:06.709Z,22.01
2022-08-12T04:34:38.436Z,22.01
2022-08-12T04:37:08.756Z,22.03
2022-08-12T04:39:40.375Z,21.97
2022-08-12T04:42:11.043Z,22.11
2022-08-12T04:44:41.626Z,22.11
2022-08-12T04:47:32.952Z,21.92
2022-08-12T04:50:03.893Z,21.92
2022-08-12T04:52:36.063Z,22.06
2022-08-12T04:55:08.398Z,22.18
2022-08-12T04:57:39.540Z,22.20
2022-08-12T05:00:12.824Z,22.05
2022-08-12T05:02:43.827Z,21.90
2022-08-12T05:05:20.223Z,21.90
2022-08-12T05:07:54.443Z,21.98
2022-08-12T05:10:33.871Z,22.09
2022-08-12T05:12:59.781Z,22.14
2022-08-12T05:15:30.892Z,22.15
2022-08-12T05:18:02.091Z,22.07
2022-08-12T05:20:33.229Z,22.07
2022-08-12T05:23:26.912Z,22.18
2022-08-12T05:25:57.482Z,22.05
2022-08-12T05:28:29.249Z,22.05
2022-08-12T05:30:59.786Z,22.18
2022-08-12T05:33:32.243Z,22.21
2022-08-12T05:36:02.538Z,22.21
2022-08-12T05:38:32.843Z,22.34
2022-08-12T05:41:05.656Z,22.39
2022-08-12T05:43:36.782Z,22.50
2022-08-12T05:46:07.213Z,22.63
2022-08-12T05:48:39.978Z,22.54
2022-08-12T05:51:11.363Z,22.54
2022-08-12T05:53:42.296Z,22.58
2022-08-12T05:56:24.818Z,22.54
2022-08-12T05:58:56.734Z,22.56
2022-08-12T06:02:10.005Z,22.60
2022-08-12T06:04:02.462Z,22.67
2022-08-12T06:06:36.584Z,22.61
2022-08-12T06:09:06.181Z,22.73
2022-08-12T06:11:37.824Z,22.76
2022-08-12T06:14:12.007Z,22.74
2022-08-12T06:16:42.405Z,22.77
2022-08-12T06:19:12.802Z,22.77
2022-08-12T06:21:43.207Z,22.76
2022-08-12T06:24:13.871Z,22.73
2022-08-12T06:26:44.204Z,22.70
2022-08-12T06:29:14.479Z,22.70
2022-08-12T06:31:47.595Z,22.70
2022-08-12T06:35:23.332Z,22.75
2022-08-12T06:36:50.748Z,22.72
2022-08-12T06:39:21.055Z,22.72
2022-08-12T06:42:02.510Z,22.76
2022-08-12T06:44:23.442Z,22.80
2022-08-12T06:46:58.345Z,22.80
2022-08-12T06:49:29.412Z,22.78
2022-08-12T06:51:59.852Z,22.78
2022-08-12T06:54:32.066Z,22.69
2022-08-12T06:57:58.099Z,22.36
2022-08-12T06:59:35.107Z,21.96
2022-08-12T07:02:06.126Z,21.90
2022-08-12T07:04:37.784Z,21.81
2022-08-12T07:07:10.488Z,21.81
2022-08-12T07:10:03.905Z,21.64
2022-08-12T07:12:14.536Z,21.81
2022-08-12T07:14:48.932Z,21.87
2022-08-12T07:17:18.908Z,21.87
2022-08-12T07:19:49.171Z,21.90
2022-08-12T07:22:19.521Z,21.73
2022-08-12T07:24:50.033Z,21.41
2022-08-12T07:27:20.206Z,21.41
2022-08-12T07:29:57.791Z,21.53
2022-08-12T07:32:23.535Z,21.53
2022-08-12T07:34:53.977Z,21.42
2022-08-12T07:37:24.387Z,21.53
2022-08-12T07:39:59.920Z,21.41
2022-08-12T07:42:26.954Z,21.41
2022-08-12T07:44:57.249Z,21.38
2022-08-12T07:47:27.611Z,21.49
2022-08-12T07:50:05.745Z,21.72
2022-08-12T07:52:33.243Z,21.99
2022-08-12T07:55:04.317Z,21.98
2022-08-12T07:57:35.780Z,22.11
2022-08-12T08:00:07.056Z,22.16
2022-08-12T08:02:37.646Z,22.33
2022-08-12T08:05:08.778Z,22.33
2022-08-12T08:07:39.228Z,22.33
2022-08-12T08:10:10.398Z,22.55
2022-08-12T08:12:43.351Z,22.61
2022-08-12T08:15:14.215Z,22.82
2022-08-12T08:18:05.487Z,22.82
2022-08-12T08:20:39.451Z,22.94
2022-08-12T08:23:12.777Z,23.11
2022-08-12T08:25:44.073Z,23.26
2022-08-12T08:28:17.520Z,23.46
2022-08-12T08:30:49.596Z,24.06
2022-08-12T08:33:23.465Z,24.53
2022-08-12T08:35:54.276Z,24.53
2022-08-12T08:38:33.253Z,24.99
2022-08-12T08:40:56.382Z,25.55
2022-08-12T08:43:27.574Z,26.37
2022-08-12T08:46:00.552Z,26.55
2022-08-12T08:48:31.828Z,26.55
2022-08-12T08:51:05.061Z,26.80
2022-08-12T08:53:35.162Z,27.29
2022-08-12T08:56:05.938Z,28.14
2022-08-12T08:58:36.452Z,28.14
2022-08-12T09:01:07.359Z,28.43
2022-08-12T09:05:09.367Z,28.40
2022-08-12T09:06:09.825Z,28.40
2022-08-12T09:08:44.003Z,27.92
2022-08-12T09:12:06.517Z,27.74
2022-08-12T09:14:12.434Z,27.52
2022-08-12T09:16:20.907Z,27.52
2022-08-12T09:18:53.216Z,27.12
2022-08-12T09:21:23.736Z,27.15
2022-08-12T09:24:01.255Z,26.93
2022-08-12T09:26:28.432Z,26.88
2022-08-12T09:29:00.397Z,26.72
2022-08-12T09:32:03.301Z,26.89
2022-08-12T09:34:26.772Z,27.14
2022-08-12T09:36:58.147Z,27.14
2022-08-12T09:40:00.399Z,28.54
2022-08-12T09:42:33.583Z,29.56
2022-08-12T09:44:37.973Z,29.56
2022-08-12T09:46:48.242Z,29.24
2022-08-12T09:49:18.810Z,29.24
2022-08-12T09:51:51.219Z,29.68
2022-08-12T09:54:33.105Z,29.79
2022-08-12T09:57:01.040Z,29.79
2022-08-12T10:00:16.571Z,30.35
2022-08-12T10:02:45.732Z,30.35
2022-08-12T10:04:30.061Z,29.59
2022-08-12T10:07:00.803Z,29.43
2022-08-12T10:09:57.872Z,29.43
2022-08-12T10:12:10.174Z,30.04
2022-08-12T10:14:36.638Z,30.36
2022-08-12T10:17:10.227Z,30.36
2022-08-12T10:19:42.264Z,31.04
2022-08-12T10:22:17.098Z,31.04
2022-08-12T10:24:53.243Z,32.08
2022-08-12T10:27:21.247Z,32.07
2022-08-12T10:30:03.963Z,32.07
2022-08-12T10:32:44.944Z,31.47
2022-08-12T10:34:57.871Z,31.10
2022-08-12T10:38:33.538Z,31.10
2022-08-12T10:40:09.520Z,30.37
2022-08-12T10:42:35.218Z,30.37
2022-08-12T10:45:07.720Z,30.02
2022-08-12T10:48:07.011Z,30.02
2022-08-12T10:50:28.378Z,29.76
2022-08-12T10:52:46.240Z,30.14
2022-08-12T10:55:18.153Z,30.54
2022-08-12T10:58:13.545Z,30.55
2022-08-12T11:00:33.665Z,30.43
2022-08-12T11:04:18.133Z,30.74
2022-08-12T11:07:08.365Z,31.76
2022-08-12T11:08:34.548Z,31.76
2022-08-12T11:10:29.087Z,32.78
2022-08-12T11:13:00.662Z,32.91
2022-08-12T11:16:02.406Z,34.24
2022-08-12T11:18:03.641Z,34.24
2022-08-12T11:20:46.583Z,33.42
2022-08-12T11:23:25.994Z,32.48
2022-08-12T11:25:57.884Z,32.48
2022-08-12T11:28:33.184Z,32.47
2022-08-12T11:34:52.523Z,33.94
2022-08-12T11:42:32.570Z,34.81
2022-08-12T11:45:01.624Z,35.11
2022-08-12T11:47:32.445Z,35.11
2022-08-12T11:50:02.841Z,35.09
2022-08-12T11:52:55.130Z,35.07
2022-08-12T11:55:06.134Z,35.19
2022-08-12T11:58:07.368Z,35.48
2022-08-12T12:02:01.792Z,35.48
2022-08-12T12:02:49.455Z,35.51
2022-08-12T12:05:19.993Z,35.00
2022-08-12T12:08:37.945Z,35.00
2022-08-12T12:10:25.400Z,35.05
2022-08-12T12:12:57.136Z,34.89
2022-08-12T12:15:40.793Z,35.09
2022-08-12T12:18:00.177Z,35.64
2022-08-12T12:20:30.667Z,35.64
2022-08-12T12:23:01.068Z,35.57
2022-08-12T12:26:07.578Z,36.37
2022-08-12T12:28:37.760Z,36.37
2022-08-12T12:30:57.333Z,35.21
2022-08-12T12:33:58.138Z,35.90
2022-08-12T12:36:30.172Z,35.90
2022-08-12T12:39:00.074Z,36.13
2022-08-12T12:41:48.210Z,36.03
2022-08-12T12:44:04.120Z,36.61
2022-08-12T12:46:35.100Z,36.73
2022-08-12T12:49:06.909Z,36.38
2022-08-12T12:51:48.807Z,36.38
2022-08-12T12:54:10.257Z,36.76
2022-08-12T12:56:43.299Z,36.76
2022-08-12T12:59:55.078Z,35.90
2022-08-12T13:01:45.672Z,35.23
2022-08-12T13:04:17.731Z,34.74
2022-08-12T13:06:48.473Z,34.39
2022-08-12T13:09:22.806Z,35.13
2022-08-12T13:11:53.501Z,35.13
2022-08-12T13:14:27.889Z,34.29
2022-08-12T13:16:57.476Z,34.33
2022-08-12T13:19:37.880Z,33.97
2022-08-12T13:22:00.788Z,33.97
2022-08-12T13:24:32.847Z,34.67
2022-08-12T13:27:03.246Z,34.55
2022-08-12T13:29:34.052Z,34.98
2022-08-12T13:32:19.491Z,34.99
2022-08-12T13:34:37.110Z,34.99
2022-08-12T13:37:09.958Z,35.26
2022-08-12T13:39:40.018Z,34.79
2022-08-12T13:42:14.605Z,34.76
2022-08-12T13:44:43.275Z,34.54
2022-08-12T13:47:18.861Z,34.54
2022-08-12T13:49:55.439Z,34.71
2022-08-12T13:52:20.173Z,34.60
2022-08-12T13:54:54.186Z,34.60
2022-08-12T13:57:22.849Z,34.38
2022-08-12T13:59:55.595Z,34.06
2022-08-12T14:02:26.907Z,34.06
2022-08-12T14:04:57.264Z,33.76
2022-08-12T14:07:27.708Z,33.75
2022-08-12T14:09:58.793Z,33.45
2022-08-12T14:12:29.265Z,33.42
2022-08-12T14:14:59.618Z,33.42
2022-08-12T14:17:31.534Z,33.36
2022-08-12T14:20:04.021Z,32.68
2022-08-12T14:22:34.424Z,31.78
2022-08-12T14:25:06.773Z,31.78
2022-08-12T14:28:04.185Z,30.64
2022-08-12T14:30:15.277Z,29.98
2022-08-12T14:32:43.488Z,29.98
2022-08-12T14:35:15.633Z,29.54
2022-08-12T14:37:58.008Z,29.38
2022-08-12T14:40:25.957Z,29.02
2022-08-12T14:42:51.691Z,29.10
2022-08-12T14:45:22.963Z,29.10
2022-08-12T14:47:58.560Z,28.87
2022-08-12T14:50:37.431Z,28.82
2022-08-12T14:55:24.650Z,28.72
2022-08-12T14:58:03.095Z,28.73
2022-08-12T15:00:33.899Z,28.61
2022-08-12T15:03:06.405Z,28.61
2022-08-12T15:06:05.005Z,28.37
2022-08-12T15:08:12.558Z,28.36
2022-08-12T15:10:46.221Z,28.38
2022-08-12T15:13:20.046Z,28.24
2022-08-12T15:15:52.671Z,28.12
2022-08-12T15:18:24.398Z,28.12
2022-08-12T15:20:56.654Z,28.12
2022-08-12T15:23:33.148Z,28.12
2022-08-12T15:26:04.730Z,28.03
2022-08-12T15:28:41.362Z,27.99
2022-08-12T15:31:27.382Z,27.89
2022-08-12T15:33:52.769Z,27.84
2022-08-12T15:36:36.511Z,27.84
2022-08-12T15:38:55.708Z,27.71
2022-08-12T15:41:26.716Z,27.55
2022-08-12T15:44:37.407Z,27.61
2022-08-12T15:46:41.142Z,27.52
2022-08-12T15:49:17.185Z,27.52
2022-08-12T15:52:05.434Z,27.57
2022-08-12T15:54:40.999Z,27.60
2022-08-12T15:57:10.702Z,27.60
2022-08-12T16:00:00.251Z,27.62
2022-08-12T16:02:14.450Z,27.57
2022-08-12T16:04:48.144Z,27.47
2022-08-12T16:07:20.449Z,27.47
2022-08-12T16:10:04.859Z,27.46
2022-08-12T16:12:27.315Z,27.46
2022-08-12T16:14:58.711Z,27.23
2022-08-12T16:18:14.877Z,27.28
2022-08-12T16:20:03.122Z,27.30
2022-08-12T16:22:35.417Z,27.20
2022-08-12T16:25:07.730Z,27.13
2022-08-12T16:27:38.360Z,27.10
2022-08-12T16:30:11.488Z,27.10
2022-08-12T16:32:41.952Z,27.07
2022-08-12T16:35:16.187Z,26.96
2022-08-12T16:38:27.680Z,26.78
2022-08-12T16:40:28.228Z,26.69
2022-08-12T16:43:02.260Z,26.69
2022-08-12T16:45:32.091Z,26.65
2022-08-12T16:48:04.208Z,26.47
2022-08-12T16:50:35.615Z,26.56
2022-08-12T16:53:09.672Z,26.56
2022-08-12T16:55:42.399Z,26.49
2022-08-12T16:58:13.488Z,26.50
2022-08-12T17:00:48.417Z,26.43
2022-08-12T17:03:28.565Z,26.43
2022-08-12T17:06:00.665Z,26.39
2022-08-12T17:08:37.660Z,26.36
2022-08-12T17:11:12.075Z,26.24
2022-08-12T17:13:53.681Z,26.19
2022-08-12T17:16:18.154Z,26.18
2022-08-12T17:18:57.442Z,26.18
2022-08-12T17:21:41.487Z,26.14
2022-08-12T17:23:55.259Z,26.10
2022-08-12T17:26:30.830Z,26.02
2022-08-12T17:29:01.080Z,25.94
2022-08-12T17:34:51.248Z,25.96
2022-08-12T17:37:16.874Z,25.95
2022-08-12T17:40:12.667Z,25.93
2022-08-12T17:42:32.768Z,25.93
2022-08-12T17:44:55.031Z,25.73
2022-08-12T17:47:31.118Z,25.63
2022-08-12T17:50:03.552Z,25.69
2022-08-12T17:52:33.369Z,25.69
2022-08-12T17:55:40.805Z,25.60
2022-08-12T17:57:41.733Z,25.60
2022-08-12T18:00:12.865Z,25.54
2022-08-12T18:04:05.855Z,25.55
2022-08-12T18:06:01.575Z,25.31
2022-08-12T18:08:54.502Z,25.31
2022-08-12T18:12:03.747Z,25.32
2022-08-12T18:14:15.971Z,25.13
2022-08-12T18:16:48.328Z,25.17
2022-08-12T18:19:19.582Z,25.16
2022-08-12T18:22:01.847Z,25.16
2022-08-12T18:24:25.092Z,25.08
2022-08-12T18:26:56.339Z,24.89
2022-08-12T18:29:41.850Z,24.89
2022-08-12T18:32:17.954Z,24.82
2022-08-12T18:34:38.784Z,24.82
2022-08-12T18:37:40.977Z,24.74
2022-08-12T18:39:45.825Z,24.74
2022-08-12T18:42:20.679Z,24.81
2022-08-12T18:45:00.977Z,24.83
2022-08-12T18:47:50.185Z,24.82
2022-08-12T18:50:14.144Z,24.77
2022-08-12T18:52:48.430Z,24.77
2022-08-12T18:55:17.967Z,24.70
2022-08-12T18:58:08.131Z,24.64
2022-08-12T19:00:22.667Z,24.64
2022-08-12T19:02:54.942Z,24.71
2022-08-12T19:05:53.827Z,24.71
2022-08-12T19:08:00.833Z,24.69
2022-08-12T19:10:34.969Z,24.69
2022-08-12T19:13:08.136Z,24.57
2022-08-12T19:16:01.343Z,24.61
2022-08-12T19:18:32.952Z,24.61
2022-08-12T19:21:06.276Z,24.55
2022-08-12T19:23:36.408Z,24.55
2022-08-12T19:26:10.708Z,24.56
2022-08-12T19:28:42.683Z,24.57
2022-08-12T19:31:21.476Z,24.50
2022-08-12T19:34:25.583Z,24.50
2022-08-12T19:36:25.875Z,24.49
2022-08-12T19:39:00.410Z,24.58
2022-08-12T19:41:42.469Z,24.53
2022-08-12T19:44:18.656Z,24.49
2022-08-12T19:46:37.866Z,24.41
2022-08-12T19:49:15.010Z,24.31
2022-08-12T19:51:46.937Z,24.31
2022-08-12T19:54:19.691Z,24.14
2022-08-12T19:56:54.426Z,24.14
2022-08-12T19:59:43.272Z,24.15
2022-08-12T20:02:03.408Z,24.09
2022-08-12T20:04:35.487Z,23.95
2022-08-12T20:07:08.621Z,23.90
2022-08-12T20:09:42.805Z,23.92
2022-08-12T20:12:22.634Z,23.82
2022-08-12T20:14:50.687Z,23.82
2022-08-12T20:17:23.482Z,23.80
2022-08-12T20:20:16.583Z,23.76
2022-08-12T20:22:31.482Z,23.74
2022-08-12T20:25:03.811Z,23.77
2022-08-12T20:28:04.884Z,23.67
2022-08-12T20:30:07.284Z,23.62
2022-08-12T20:32:47.551Z,23.61
2022-08-12T20:35:10.603Z,23.59
2022-08-12T20:38:07.026Z,23.63
2022-08-12T20:40:14.740Z,23.59
2022-08-12T20:42:46.730Z,23.38
2022-08-12T20:45:18.744Z,23.50
2022-08-12T20:48:02.016Z,23.50
2022-08-12T20:50:22.808Z,23.55
2022-08-12T20:52:55.192Z,23.55
2022-08-12T20:55:42.549Z,23.46
2022-08-12T20:58:03.168Z,23.59
2022-08-12T21:00:30.324Z,23.52
2022-08-12T21:03:00.850Z,23.50
2022-08-12T21:06:12.116Z,23.55
2022-08-12T21:08:24.411Z,23.46
2022-08-12T21:10:55.911Z,23.50
2022-08-12T21:13:27.330Z,23.40
2022-08-12T21:16:00.170Z,23.40
2022-08-12T21:18:31.784Z,23.39
2022-08-12T21:21:02.172Z,23.36
2022-08-12T21:23:38.521Z,23.43
2022-08-12T21:26:05.270Z,23.43
2022-08-12T21:28:35.816Z,23.23
2022-08-12T21:32:34.737Z,23.25
2022-08-12T21:33:58.853Z,23.25
2022-08-12T21:36:22.219Z,23.14
2022-08-12T21:38:43.266Z,23.10
2022-08-12T21:41:15.932Z,23.07
2022-08-12T21:43:48.713Z,23.07
2022-08-12T21:46:34.629Z,23.14
2022-08-12T21:48:56.823Z,23.10
2022-08-12T21:51:24.080Z,23.08
2022-08-12T21:54:07.307Z,22.98
2022-08-12T21:56:34.723Z,22.94
2022-08-12T21:59:00.097Z,22.94
2022-08-12T22:01:30.564Z,23.02
2022-08-12T22:04:11.612Z,22.99
2022-08-12T22:06:43.954Z,22.99
2022-08-12T22:09:09.018Z,22.99
2022-08-12T22:11:43.740Z,22.97
2022-08-12T22:14:21.714Z,23.00
2022-08-12T22:16:46.752Z,23.01
2022-08-12T22:19:17.744Z,22.98
2022-08-12T22:21:53.271Z,22.98
2022-08-12T22:24:27.168Z,23.01
2022-08-12T22:26:58.888Z,22.88
2022-08-12T22:29:29.244Z,22.88
2022-08-12T22:31:59.960Z,22.84
2022-08-12T22:34:33.308Z,22.84
2022-08-12T22:37:02.775Z,22.85
2022-08-12T22:39:33.552Z,22.80
2022-08-12T22:42:05.972Z,22.80
2022-08-12T22:44:54.224Z,22.79
2022-08-12T22:47:08.850Z,22.75
2022-08-12T22:49:53.112Z,22.75
2022-08-12T22:52:11.379Z,22.79
2022-08-12T22:55:00.161Z,22.76
2022-08-12T22:57:14.497Z,22.71
2022-08-12T22:59:55.829Z,22.62
2022-08-12T23:02:17.119Z,22.49
2022-08-12T23:04:49.665Z,22.47
2022-08-12T23:07:20.357Z,22.45
2022-08-12T23:09:53.713Z,22.48
2022-08-12T23:12:25.146Z,22.48
2022-08-12T23:14:55.602Z,22.47
2022-08-12T23:17:41.048Z,22.47
2022-08-12T23:19:59.718Z,22.47
2022-08-12T23:22:36.221Z,22.47
2022-08-12T23:25:03.985Z,22.37
2022-08-12T23:27:44.231Z,22.46
2022-08-12T23:30:18.401Z,22.43
2022-08-12T23:32:40.152Z,22.43
2022-08-12T23:35:10.821Z,22.40
2022-08-12T23:37:47.609Z,22.43
2022-08-12T23:40:17.951Z,22.43
2022-08-12T23:42:47.742Z,22.35
2022-08-12T23:45:20.285Z,22.31
2022-08-12T23:47:50.365Z,22.31
2022-08-12T23:50:22.418Z,22.31
2022-08-12T23:52:54.386Z,22.32
2022-08-12T23:55:29.058Z,22.32
2022-08-12T23:58:21.165Z,22.27
